ADDS METAR Data INFO
IDs: Format: Raw Decoded Include TAF

Data at: 2148 UTC 16 Oct 2017

KLBB 162053Z 19011KT 10SM CLR 21/M02 A3033 RMK AO2 SLP248 T02111022 56036
KLBB 161953Z 20007KT 10SM CLR 20/M03 A3037 RMK AO2 SLP260 T02001028
KLBB 161853Z 15005KT 10SM CLR 19/M03 A3041 RMK AO2 SLP274 T01941033
KLBB 161753Z VRB04KT 10SM CLR 18/M03 A3045 RMK AO2 SLP289 T01781028 10178 20028 58015
KLBB 161653Z 17006KT 10SM CLR 17/M01 A3047 RMK AO2 SLP296 T01671011
KLBB 161553Z VRB05KT 10SM CLR 14/01 A3049 RMK AO2 SLP305 T01440006
KLBB 161453Z 26003KT 10SM CLR 11/02 A3049 RMK AO2 SLP310 T01110022 53008
KLBB 161353Z 30004KT 10SM CLR 07/02 A3048 RMK AO2 SLP309 T00670022
KLBB 161253Z 32005KT 10SM CLR 03/00 A3046 RMK AO2 SLP306 T00330000 $
KLBB 161153Z 32005KT 10SM CLR 03/01 A3046 RMK AO2 SLP301 T00330006 10078 20028 53004 $
KLBB 161053Z 29003KT 10SM CLR 03/01 A3045 RMK AO2 SLP294 T00330006 $
KLBB 160953Z 31004KT 10SM CLR 04/01 A3045 RMK AO2 SLP291 T00440006 $
KLBB 160853Z 27004KT 9SM CLR 04/01 A3045 RMK AO2 SLP293 T00390006 58004 $
KLBB 160753Z 09003KT 10SM CLR 06/01 A3046 RMK AO2 SLP294 T00610006 $
KLBB 160653Z 10003KT 10SM CLR 07/01 A3046 RMK AO2 SLP295 T00720006 $
KLBB 160553Z 12003KT 10SM CLR 08/01 A3046 RMK AO2 SLP296 T00780006 10172 20078 402110072 50004 $
KLBB 160453Z 11005KT 10SM CLR 08/00 A3047 RMK AO2 SLP299 T00830000 $
KLBB 160353Z 09006KT 10SM CLR 09/01 A3046 RMK AO2 SLP298 T00940006 $
KLBB 160253Z 08005KT 10SM CLR 10/01 A3045 RMK AO2 SLP297 T01000011 51014 $
KLBB 160153Z 06007KT 10SM CLR 11/01 A3044 RMK AO2 SLP295 T01060006 $
KLBB 160053Z 06007KT 10SM FEW200 FEW250 12/00 A3042 RMK AO2 SLP289 T01220000 $
KLBB 152353Z 06007KT 10SM FEW160 FEW200 FEW250 17/M03 A3041 RMK AO2 SLP276 T01721028 10211 20172 53000 $
KLBB 152253Z 03009KT 10SM FEW200 FEW250 20/M04 A3040 RMK AO2 SLP270 T02001044 $
KLBB 152153Z 05009KT 10SM FEW200 SCT260 21/M05 A3040 RMK AO2 SLP266 T02061050 $
KLBB 152053Z 05008G17KT 10SM FEW160 FEW200 FEW260 21/M03 A3041 RMK AO2 SLP268 T02061033 56025 $
KLBB 151953Z 04007G16KT 10SM FEW260 FEW300 19/M03 A3043 RMK AO2 SLP275 T01941028 $
KLBB 151853Z 04010G16KT 10SM FEW260 FEW300 19/M02 A3046 RMK AO2 SLP287 T01891017 $
KLBB 151753Z 04008G16KT 10SM FEW260 FEW300 17/M01 A3049 RMK AO2 SLP296 T01721011 10178 20072 50005 $
KLBB 151653Z 05007KT 10SM FEW260 SCT300 16/01 A3050 RMK AO2 SLP298 T01560006 $
KLBB 151553Z 02012KT 10SM FEW260 SCT300 13/01 A3050 RMK AO2 SLP297 T01330011 $
KLBB 151453Z 03014KT 10SM FEW200 FEW260 FEW300 11/02 A3047 RMK AO2 SLP290 T01110017 $
KLBB 151353Z 01010KT 10SM FEW200 FEW260 09/02 A3044 RMK AO2 SLP280 T00890022 $
KLBB 151253Z 02010KT 10SM FEW250 07/01 A3041 RMK AO2 SLP267 T00720011
KLBB 151153Z 01011G19KT 10SM FEW250 08/01 A3038 RMK AO2 SLP253 T00830006 10139 20083 51020
KLBB 151053Z 01011KT 10SM FEW250 08/00 A3037 RMK AO2 SLP247 T00830000
KLBB 150953Z 01016G22KT 10SM CLR 10/M01 A3034 RMK AO2 PK WND 04026/0854 SLP233 T01001011